• Join FlightAware (Why Join?)
  • Login
  • US Flag 
06:51PM EST


 

Airport Tracker/Info


-or-


 

Live Flight TrackerFlight Track Log ✈ SWA481 ✈ 06-May-2013 ✈ KPHL - KPHX

Flight Track Log - Related Links

Times and Time Zones

All times are in EDT time to prevent confusion due to time zone crossing. See the SWA481 flight status page for this flight to view local times or setup timezone preferences in your user account.

Time Position Orientation Groundspeed Altitude Reporting Facility
EDT Latitude Longitude Course Direction KTS MPH feet Rate Location/Type
06:28AM 39.8833 -75.2167 67° East 160 184 800  Level Philadelphia TRACON
06:29AM 39.9000 -75.1667 67° East 186 214 2,200 2,220 Climbing Philadelphia TRACON
06:30AM 39.9167 -75.1000 72° East 242 278 4,900 2,940 Climbing Philadelphia TRACON
06:31AM 39.9833 -75.0833 11° North 284 327 8,100 2,580 Climbing Philadelphia TRACON
06:32AM 40.0167 -75.1667 298° West 303 349 10,100 960 Climbing Philadelphia TRACON
06:33AM 40.0000 -75.2833 259° West 354 407 10,000 -60 Descending Philadelphia TRACON
06:34AM 39.9678 -75.4161 252° West 355 409 10,000 240 Level New York Center
06:35AM 39.9592 -75.5264 264° West 350 403 10,600 1,860 Climbing New York Center
06:36AM 39.9553 -75.6725 268° West 350 403 13,700 2,880 Climbing New York Center
06:37AM 39.9522 -75.7942 268° West 370 426 16,300 2,580 Climbing New York Center
06:38AM 39.9475 -75.9508 268° West 390 449 18,900 2,280 Climbing New York Center
06:39AM 39.9522 -76.0811 273° West 397 457 21,000 2,040 Climbing New York Center
06:40AM 39.9411 -76.2319 265° West 409 471 23,100 2,040 Climbing New York Center
06:41AM 39.9383 -76.3833 269° West 421 484 25,100 1,980 Climbing New York Center
06:42AM 39.9325 -76.5456 267° West 436 502 27,000 1,680 Climbing New York Center
06:43AM 39.9286 -76.7075 268° West 442 509 28,600 1,680 Climbing New York Center
06:44AM 39.9328 -76.8706 272° West 453 521 30,400 1,800 Climbing New York Center
06:45AM 39.9408 -77.0336 274° West 453 521 32,200 1,680 Climbing New York Center
06:47AM 39.9536 -77.3142 273° West 442 509 35,000 1,380 Climbing Cleveland Center
06:48AM 39.9578 -77.4708 272° West 442 509 36,000 480 Climbing Cleveland Center
06:49AM 39.9642 -77.6306 273° West 442 509 36,000  Level Cleveland Center
06:50AM 39.9703 -77.7847 273° West 437 503 36,000  Level Cleveland Center
06:51AM 39.9719 -77.9417 271° West 437 503 36,000  Level Cleveland Center
06:52AM 39.9775 -78.0986 273° West 437 503 36,000  Level Cleveland Center
06:53AM 39.9831 -78.2556 273° West 437 503 36,000  Level Cleveland Center
06:54AM 39.9819 -78.4156 270° West 442 509 36,000  Level Cleveland Center
06:55AM 39.9850 -78.5781 271° West 442 509 36,000  Level Cleveland Center
06:56AM 39.9897 -78.7350 272° West 442 509 36,000  Level Cleveland Center
06:57AM 39.9922 -78.8950 271° West 442 509 36,000  Level Cleveland Center
06:58AM 40.0006 -79.0544 274° West 442 509 36,000  Level Cleveland Center
06:59AM 40.0028 -79.2144 271° West 442 509 36,000  Level Cleveland Center
07:00AM 40.0044 -79.3769 271° West 442 509 36,000  Level Cleveland Center
07:01AM 40.0083 -79.5422 272° West 442 509 36,000  Level Cleveland Center
07:02AM 40.0094 -79.6833 271° West 442 509 36,000  Level Cleveland Center
07:03AM 40.0128 -79.8458 272° West 442 509 36,000  Level Cleveland Center
07:04AM 40.0136 -80.0083 270° West 442 509 36,000  Level Cleveland Center
07:05AM 40.0164 -80.1711 271° West 442 509 36,000  Level Cleveland Center
07:06AM 40.0169 -80.3364 270° West 442 509 36,000  Level Cleveland Center
07:07AM 40.0192 -80.5017 271° West 448 516 36,000  Level Cleveland Center
07:09AM 40.0156 -80.8433 269° West 460 529 36,000  Level Indianapolis Center
07:10AM 40.0133 -81.0108 269° West 460 529 36,000  Level Indianapolis Center
07:11AM 40.0106 -81.1783 269° West 458 527 36,000  Level Indianapolis Center
07:12AM 40.0089 -81.3467 269° West 459 528 36,000  Level Indianapolis Center
07:13AM 40.0053 -81.5131 268° West 457 526 36,000  Level Indianapolis Center
07:14AM 40.0019 -81.6794 269° West 456 525 36,000  Level Indianapolis Center
07:15AM 40.0006 -81.8350 269° West 457 526 36,000  Level Indianapolis Center
07:16AM 39.9956 -82.0014 268° West 458 527 36,000  Level Indianapolis Center
07:17AM 39.9903 -82.1694 268° West 457 526 36,000  Level Indianapolis Center
07:18AM 39.9872 -82.3369 269° West 459 528 36,000  Level Indianapolis Center
07:19AM 39.9825 -82.5044 268° West 458 527 36,000  Level Indianapolis Center
07:20AM 39.9767 -82.6981 268° West 456 525 36,000  Level Indianapolis Center
07:21AM 39.9719 -82.8658 268° West 459 528 36,000  Level Indianapolis Center
07:22AM 39.9661 -83.0314 267° West 456 525 36,000 300 Level Indianapolis Center
07:23AM 39.9633 -83.2006 269° West 463 533 36,700 780 Climbing Indianapolis Center
07:24AM 39.9578 -83.3678 268° West 464 534 37,700 600 Climbing Indianapolis Center
07:25AM 39.9514 -83.5317 267° West 462 532 38,000 120 Climbing Indianapolis Center
07:26AM 39.9447 -83.6956 267° West 460 529 38,000  Level Indianapolis Center
07:27AM 39.9386 -83.8614 267° West 458 527 38,000  Level Indianapolis Center
07:28AM 39.9322 -84.0292 267° West 461 531 38,000  Level Indianapolis Center
07:29AM 39.9247 -84.1983 267° West 464 534 38,000  Level Indianapolis Center
07:30AM 39.9183 -84.3664 267° West 464 534 38,000  Level Indianapolis Center
07:31AM 39.9097 -84.5636 267° West 464 534 38,000  Level Indianapolis Center
07:32AM 39.9028 -84.7319 267° West 463 533 38,000  Level Indianapolis Center
07:33AM 39.8936 -84.8950 266° West 467 537 38,000  Level Indianapolis Center
07:34AM 39.8856 -85.0622 266° West 466 536 38,000  Level Indianapolis Center
07:35AM 39.8783 -85.2303 267° West 468 539 38,000  Level Indianapolis Center
07:36AM 39.8694 -85.3994 266° West 469 540 38,000  Level Indianapolis Center
07:37AM 39.8608 -85.5683 266° West 470 541 38,000  Level Indianapolis Center
07:38AM 39.8511 -85.7372 266° West 471 542 38,000  Level Indianapolis Center
07:39AM 39.8294 -85.9369 262° West 468 539 38,000  Level Indianapolis Center
07:40AM 39.8081 -86.1017 260° West 467 537 38,000  Level Indianapolis Center
07:42AM 39.7864 -86.2706 261° West 465 535 38,000  Level Indianapolis Center
07:43AM 39.7642 -86.4369 260° West 467 537 38,000  Level Indianapolis Center
07:44AM 39.7408 -86.6197 261° West 471 542 38,000  Level Indianapolis Center
07:45AM 39.7186 -86.7858 260° West 469 540 38,000  Level Indianapolis Center
07:46AM 39.6964 -86.9536 260° West 473 544 38,000  Level Indianapolis Center
07:47AM 39.6731 -87.1217 260° West 474 545 38,000  Level Indianapolis Center
07:48AM 39.6506 -87.2894 260° West 475 547 38,000  Level Indianapolis Center
07:49AM 39.6267 -87.4569 260° West 474 545 38,000  Level Indianapolis Center
07:50AM 39.6033 -87.6256 260° West 475 547 38,000  Level Indianapolis Center
07:51AM 39.5750 -87.8281 260° West 478 550 38,000  Level Indianapolis Center
07:51AM 39.5656 -87.8897 259° West 477 549 38,000  Level Kansas City Center
07:52AM 39.5414 -88.0561 259° West 474 545 38,000  Level Kansas City Center
07:53AM 39.5181 -88.2217 260° West 469 540 38,000  Level Kansas City Center
07:54AM 39.4933 -88.3875 259° West 469 540 38,000  Level Kansas City Center
07:55AM 39.4700 -88.5533 260° West 468 539 38,000  Level Kansas City Center
07:56AM 39.4419 -88.7300 258° West 472 543 38,000  Level Kansas City Center
07:57AM 39.4164 -88.8936 259° West 466 536 38,000  Level Kansas City Center
07:58AM 39.3908 -89.0533 258° West 465 535 38,000  Level Kansas City Center
07:59AM 39.3658 -89.2150 259° West 463 533 38,000  Level Kansas City Center
08:00AM 39.3408 -89.3794 259° West 466 536 38,000  Level Kansas City Center
08:01AM 39.3156 -89.5406 259° West 463 533 38,000  Level Kansas City Center
08:02AM 39.2894 -89.7039 258° West 464 534 38,000  Level Kansas City Center
08:03AM 39.2633 -89.8650 258° West 464 534 38,000  Level Kansas City Center
08:05AM 39.2094 -90.0296 259° West  Level FlightAware Approximate
08:05AM 39.2056 -90.2214 259° West 465 535 38,000  Level Kansas City Center
08:06AM 39.1794 -90.3808 258° West 462 532 38,000  Level Kansas City Center
08:07AM 39.1528 -90.5372 258° West 456 525 38,000  Level Kansas City Center
08:08AM 39.1272 -90.6931 258° West 452 520 38,000  Level Kansas City Center
08:09AM 39.1014 -90.8478 258° West 448 516 38,000  Level Kansas City Center
08:10AM 39.0750 -91.0039 258° West 450 518 38,000  Level Kansas City Center
08:11AM 39.0483 -91.1606 258° West 452 520 38,000  Level Kansas City Center
08:12AM 39.0147 -91.3494 257° West 454 522 38,000  Level Kansas City Center
08:14AM 38.9875 -91.5072 258° West 454 522 38,000  Level Kansas City Center
08:15AM 38.9592 -91.6650 257° West 455 524 38,000  Level Kansas City Center
08:16AM 38.9317 -91.8119 257° West 454 522 38,000  Level Kansas City Center
08:18AM 38.8669 -92.1664 257° West 463 533 38,000  Level Kansas City Center
08:19AM 38.8378 -92.3294 257° West 468 539 38,000  Level Kansas City Center
08:20AM 38.8075 -92.4869 256° West 464 534 38,000  Level Kansas City Center
08:21AM 38.7783 -92.6436 257° West 458 527 38,000  Level Kansas City Center
08:23AM 38.7183 -92.9567 256° West 454 522 38,000  Level Kansas City Center
08:24AM 38.6894 -93.1108 257° West 451 519 38,000  Level Kansas City Center
08:25AM 38.6586 -93.2631 256° West 446 513 38,000  Level Kansas City Center
08:26AM 38.6300 -93.4144 256° West 440 506 38,000  Level Kansas City Center
08:28AM 38.5661 -93.7414 256° West 431 496 38,000  Level Kansas City Center
08:30AM 38.5078 -94.0361 256° West 433 498 38,000  Level Kansas City Center
08:32AM 38.4461 -94.3414 256° West 427 491 38,000  Level Kansas City Center
08:34AM 38.4062 -94.5763 259° West  Level FlightAware Approximate
08:36AM 38.3431 -94.9233 258° West 417 480 38,000  Level Kansas City Center
08:37AM 38.3194 -95.0594 258° West 414 476 38,000  Level Kansas City Center
08:38AM 38.2925 -95.2169 258° West 409 471 38,000  Level Kansas City Center
08:39AM 38.2689 -95.3542 258° West 410 472 38,000  Level Kansas City Center
08:40AM 38.2417 -95.5156 258° West 414 476 38,000  Level Kansas City Center
08:41AM 38.2341 -95.5817 258° West  Level FlightAware Approximate
08:41AM 38.2175 -95.6503 257° West 409 471 38,000  Level Kansas City Center
08:42AM 38.1939 -95.7856 258° West 409 471 38,000  Level Kansas City Center
08:43AM 38.1675 -95.9383 258° West 399 459 38,000  Level Kansas City Center
08:44AM 38.1436 -96.0681 257° West 394 453 38,000  Level Kansas City Center
08:46AM 38.1094 -96.2579 257° West  Level FlightAware Approximate
08:46AM 38.0917 -96.3561 257° West 395 455 38,000  Level Kansas City Center
08:47AM 38.0669 -96.4931 257° West 399 459 38,000  Level Kansas City Center
08:48AM 38.0411 -96.6317 257° West 404 465 38,000  Level Kansas City Center
08:49AM 38.0164 -96.7711 257° West 405 466 38,000  Level Kansas City Center
08:51AM 37.9841 -96.9437 257° West  Level FlightAware Approximate
08:51AM 37.9636 -97.0481 257° West 404 465 38,000  Level Kansas City Center
08:53AM 37.9324 -97.2134 257° West  Level FlightAware Approximate
08:53AM 37.9106 -97.3250 257° West 404 465 38,000  Level Kansas City Center
08:54AM 37.8836 -97.4642 256° West 407 468 38,000  Level Kansas City Center
08:55AM 37.8511 -97.6314 256° West 406 467 38,000  Level Kansas City Center
08:56AM 37.8231 -97.7717 256° West 405 466 38,000  Level Kansas City Center
08:58AM 37.7952 -97.9202 257° West  Level FlightAware Approximate
08:59AM 37.7675 -98.0581 257° West 409 471 38,000  Level Kansas City Center
09:00AM 37.7408 -98.1989 257° West 409 471 38,000  Level Kansas City Center
09:01AM 37.7133 -98.3394 256° West 411 473 38,000  Level Kansas City Center
09:02AM 37.6853 -98.4789 256° West 410 472 38,000  Level Kansas City Center
09:03AM 37.6547 -98.6142 254° West 401 461 38,000  Level Kansas City Center
09:04AM 37.6286 -98.7519 257° West 403 464 38,000  Level Kansas City Center
09:05AM 37.5994 -98.8867 255° West 399 459 38,000  Level Kansas City Center
09:06AM 37.5706 -99.0206 255° West 397 457 38,000  Level Kansas City Center
09:07AM 37.5419 -99.1553 255° West 398 458 38,000  Level Kansas City Center
09:08AM 37.5103 -99.3178 256° West 398 458 38,000  Level Kansas City Center
09:09AM 37.4664 -99.5317 256° West 395 455 38,000  Level Albuquerque Center
09:10AM 37.4392 -99.6597 255° West 396 456 38,000  Level Albuquerque Center
09:11AM 37.4111 -99.7861 254° West 394 453 38,000  Level Albuquerque Center
09:12AM 37.3969 -99.8519 255° West 395 455 38,000  Level Kansas City Center
09:13AM 37.3644 -99.9997 255° West 393 452 38,000  Level Kansas City Center
09:14AM 37.3367 -100.1292 255° West 397 457 38,000  Level Kansas City Center
09:15AM 37.3044 -100.2789 255° West 398 458 38,000  Level Kansas City Center
09:16AM 37.2764 -100.4089 255° West 399 459 38,000  Level Kansas City Center
09:17AM 37.2475 -100.5381 254° West 400 460 38,000  Level Kansas City Center
09:18AM 37.2142 -100.6886 255° West 399 459 38,000  Level Kansas City Center
09:19AM 37.1853 -100.8192 255° West 401 461 38,000  Level Kansas City Center
09:20AM 37.1506 -100.9700 254° West 402 463 38,000  Level Kansas City Center
09:21AM 37.1211 -101.0994 254° West 402 463 38,000  Level Kansas City Center
09:23AM 37.0581 -101.3783 254° West 400 460 38,000  Level Kansas City Center
09:24AM 37.0478 -101.4206 253° West 398 458 38,000  Level Albuquerque Center
09:25AM 37.0192 -101.5472 254° West 396 456 38,000  Level Albuquerque Center
09:26AM 36.9842 -101.6969 254° West 399 459 38,000  Level Albuquerque Center
09:27AM 36.9336 -101.9086 253° West 399 459 38,000  Level Kansas City Center
09:28AM 36.8983 -102.0589 254° West 402 463 38,000  Level Kansas City Center
09:29AM 36.8889 -102.1031 255° West 403 464 38,000  Level Albuquerque Center
09:30AM 36.8606 -102.2197 253° West 401 461 38,000  Level Albuquerque Center
09:31AM 36.8019 -102.4656 253° West 402 463 38,000  Level Kansas City Center
09:32AM 36.7906 -102.5128 253° West 403 464 38,000  Level Albuquerque Center
09:33AM 36.7583 -102.6494 254° West 408 470 38,000  Level Albuquerque Center
09:35AM 36.6967 -102.9042 253° West 401 461 38,000  Level Albuquerque Center
09:36AM 36.6600 -103.0533 253° West 402 463 38,000  Level Albuquerque Center
09:38AM 36.6003 -103.2968 253° West  Level FlightAware Approximate
09:39AM 36.5647 -103.4375 253° West 398 458 38,000  Level Albuquerque Center
09:41AM 36.5064 -103.6737 253° West  Level FlightAware Approximate
09:43AM 36.4258 -103.9808 253° West 393 452 38,000  Level Albuquerque Center
09:44AM 36.3928 -104.1103 252° West 392 451 38,000  Level Albuquerque Center
09:46AM 36.3373 -104.3346 253° West  Level FlightAware Approximate
09:47AM 36.2889 -104.5072 253° West 403 464 38,000  Level Albuquerque Center
09:48AM 36.2654 -104.6237 253° West  Level FlightAware Approximate
09:48AM 36.2556 -104.6378 252° West 399 459 38,000  Level Albuquerque Center
09:49AM 36.2211 -104.7706 252° West 401 461 38,000  Level Albuquerque Center
09:50AM 36.1842 -104.9039 251° West 405 466 38,000  Level Albuquerque Center
09:51AM 36.1489 -105.0364 252° West 405 466 38,000  Level Albuquerque Center
09:52AM 36.1136 -105.1672 252° West 401 461 38,000  Level Albuquerque Center
09:53AM 36.0778 -105.2997 252° West 403 464 38,000  Level Albuquerque Center
09:54AM 36.0431 -105.4322 252° West 403 464 38,000  Level Albuquerque Center
09:55AM 36.0058 -105.5703 252° West 406 467 38,000  Level Albuquerque Center
09:57AM 35.9528 -105.7648 251° West  Level FlightAware Approximate
09:57AM 35.9325 -105.8364 251° West 408 470 38,000  Level Albuquerque Center
09:59AM 35.8804 -106.0261 251° West  Level FlightAware Approximate
09:59AM 35.8589 -106.1025 251° West 411 473 38,000  Level Albuquerque Center
10:00AM 35.8167 -106.2567 251° West 417 480 38,000  Level Albuquerque Center
10:01AM 35.7817 -106.3864 252° West 417 480 38,000  Level Albuquerque Center
10:02AM 35.7394 -106.5364 251° West 416 479 38,000  Level Albuquerque Center
10:04AM 35.6896 -106.7123 251° West  Level FlightAware Approximate
10:04AM 35.6622 -106.8106 251° West 409 471 38,000  Level Albuquerque Center
10:05AM 35.6289 -106.9275 251° West 408 470 38,000  Level Albuquerque Center
10:06AM 35.5914 -107.0581 251° West 408 470 38,000  Level Albuquerque Center
10:08AM 35.5081 -107.3347 250° West 409 471 38,000  Level Albuquerque Center
10:09AM 35.4708 -107.4589 250° West 406 467 38,000  Level Albuquerque Center
10:10AM 35.4267 -107.6044 250° West 407 468 38,000  Level Albuquerque Center
10:12AM 35.3817 -107.7544 250° West  Level FlightAware Approximate
10:12AM 35.3444 -107.8739 250° West 406 467 38,000  Level Albuquerque Center
10:13AM 35.3044 -107.9997 249° West 409 471 38,000  Level Albuquerque Center
10:15AM 35.2622 -108.1406 250° West  Level FlightAware Approximate
10:19AM 35.0950 -108.6697 248° West 414 476 38,000  Level Albuquerque Center
10:20AM 35.0550 -108.7942 249° West 412 474 38,000  Level Albuquerque Center
10:21AM 35.0086 -108.9394 249° West 411 473 38,000  Level Albuquerque Center
10:22AM 34.9756 -109.0593 248° West  Level FlightAware Approximate
10:22AM 34.9692 -109.0653 249° West 413 475 38,000  Level Albuquerque Center
10:23AM 34.9324 -109.1892 248° West  Level FlightAware Approximate
10:23AM 34.9225 -109.2081 248° West 408 470 37,400  Level Albuquerque Center
10:24AM 34.8890 -109.3190 248° West  Level FlightAware Approximate
10:24AM 34.8814 -109.3322 248° West 410 472 36,500  Level Albuquerque Center
10:25AM 34.8419 -109.4542 249° West 406 467 36,000 -180 Descending Albuquerque Center
10:27AM 34.7611 -109.6803 247° West  Level FlightAware Approximate
10:28AM 34.7111 -109.8461 247° West 394 453 35,900  Level Albuquerque Center
10:29AM 34.6683 -109.9633 246° West 395 455 36,000  Climbing Albuquerque Center
10:30AM 34.6189 -110.0972 246° West 392 451 36,000 -240 Level Albuquerque Center
10:32AM 34.5335 -110.2988 243° Southwest  Level FlightAware Approximate
10:32AM 34.5336 -110.3264 243° Southwest 383 441 35,300  Level Albuquerque Center
10:33AM 34.4922 -110.4458 247° West 393 452 33,000 -1,740 Descending Albuquerque Center
10:34AM 34.4389 -110.5889 246° West 390 449 31,800 -1,620 Descending Albuquerque Center
10:35AM 34.3953 -110.7003 245° Southwest 371 427 29,700 -1,680 Descending Albuquerque Center
10:37AM 34.2882 -110.8511 231° Southwest  Level FlightAware Approximate
10:39AM 34.1442 -111.0675 237° Southwest 353 406 23,200  Level Albuquerque Center
10:40AM 34.0806 -111.1497 227° Southwest 341 392 21,300 -2,040 Descending Albuquerque Center
10:41AM 34.0061 -111.2450 227° Southwest 329 379 19,000 -2,040 Descending Albuquerque Center
10:42AM 33.9464 -111.3222 227° Southwest 316 364 17,200 -1,560 Descending Albuquerque Center
10:43AM 33.8867 -111.3994 227° Southwest 313 360 15,800 -1,380 Descending Albuquerque Center
10:44AM 33.7745 -111.5846 239° Southwest  Level FlightAware Approximate
10:44AM 33.8431 -111.4764 236° Southwest 279 321 14,400  Level Albuquerque Center
10:45AM 33.7155 -111.7022 237° Southwest  Level FlightAware Approximate
10:45AM 33.8011 -111.5561 238° Southwest 279 321 12,900  Level Albuquerque Center
10:46AM 33.7611 -111.6336 238° Southwest 272 313 11,400 -1,440 Descending Albuquerque Center
10:47AM 33.7203 -111.7089 237° Southwest 268 308 10,000 -720 Descending Albuquerque Center
10:48AM 33.6789 -111.7850 237° Southwest 270 311 10,000 -300 Level Albuquerque Center
10:49AM 33.6381 -111.8597 237° Southwest 267 307 9,400 -540 Descending Albuquerque Center
10:50AM 33.5947 -111.9394 237° Southwest 239 275 9,000 -780 Descending Albuquerque Center
10:53AM 33.5281 -112.0683 238° Southwest 227 261 7,000 -1,020 Descending Albuquerque Center
10:54AM 33.5258 -112.1464 268° West 237 273 5,900 -1,140 Descending Albuquerque Center
10:55AM 33.4994 -112.2067 242° Southwest 228 262 4,700 -1,320 Descending Albuquerque Center
10:56AM 33.4486 -112.1831 159° South 210 242 3,200 -1,020 Descending Albuquerque Center
10:58AM 33.4333 -112.0500 98° East 139 160 1,600 -780 Descending Phoenix TRACON